createdAt,value
2022-12-09T00:01:27.965Z,81.45
2022-12-09T00:03:56.160Z,82.26
2022-12-09T00:06:25.564Z,80.86
2022-12-09T00:08:52.944Z,80.97
2022-12-09T00:11:20.855Z,80.68
2022-12-09T00:13:52.815Z,81.17
2022-12-09T00:16:19.815Z,81.09
2022-12-09T00:18:46.583Z,81.00
2022-12-09T00:21:18.984Z,81.48
2022-12-09T00:23:45.826Z,81.22
2022-12-09T00:26:13.135Z,80.99
2022-12-09T00:28:40.510Z,81.17
2022-12-09T00:31:08.039Z,81.63
2022-12-09T00:33:35.256Z,81.62
2022-12-09T00:36:10.685Z,81.91
2022-12-09T00:38:37.893Z,82.50
2022-12-09T00:41:05.602Z,81.90
2022-12-09T00:43:33.115Z,81.58
2022-12-09T00:46:00.603Z,82.08
2022-12-09T00:48:28.248Z,81.86
2022-12-09T00:50:55.424Z,81.81
2022-12-09T00:53:22.076Z,82.33
2022-12-09T00:55:49.088Z,82.55
2022-12-09T00:58:16.093Z,81.61
2022-12-09T01:00:43.013Z,81.47
2022-12-09T01:03:17.597Z,82.58
2022-12-09T01:05:44.911Z,82.15
2022-12-09T01:08:12.575Z,82.97
2022-12-09T01:10:41.497Z,82.63
2022-12-09T01:13:08.655Z,82.20
2022-12-09T01:15:36.144Z,82.16
2022-12-09T01:18:03.330Z,82.54
2022-12-09T01:20:30.007Z,81.83
2022-12-09T01:22:56.686Z,82.27
2022-12-09T01:25:23.277Z,82.67
2022-12-09T01:27:50.224Z,82.50
2022-12-09T01:30:17.248Z,82.95
2022-12-09T01:32:44.240Z,82.86
2022-12-09T01:35:11.174Z,82.73
2022-12-09T01:37:38.401Z,82.50
2022-12-09T01:40:08.374Z,83.02
2022-12-09T01:42:35.552Z,82.93
2022-12-09T01:45:20.715Z,82.00
2022-12-09T01:47:49.245Z,81.89
2022-12-09T01:50:16.926Z,81.90
2022-12-09T01:52:44.717Z,82.72
2022-12-09T01:55:12.219Z,83.97
2022-12-09T01:57:39.698Z,83.75
2022-12-09T02:00:07.892Z,83.53
2022-12-09T02:02:38.336Z,82.52
2022-12-09T02:05:06.641Z,81.40
2022-12-09T02:07:33.900Z,81.49
2022-12-09T02:10:02.447Z,83.55
2022-12-09T02:12:41.185Z,84.21
2022-12-09T02:17:55.524Z,83.46
2022-12-09T02:20:24.858Z,84.12
2022-12-09T02:23:07.590Z,84.21
2022-12-09T02:25:49.642Z,82.92
2022-12-09T02:28:34.857Z,82.81
2022-12-09T02:31:25.754Z,82.90
2022-12-09T02:33:58.620Z,82.21
2022-12-09T02:36:30.040Z,82.37
2022-12-09T02:38:58.532Z,81.94
2022-12-09T02:41:30.692Z,81.96
2022-12-09T02:44:03.116Z,81.90
2022-12-09T02:46:31.761Z,82.23
2022-12-09T02:48:59.731Z,82.49
2022-12-09T02:51:30.046Z,82.51
2022-12-09T02:54:04.150Z,83.35
2022-12-09T02:56:32.447Z,82.98
2022-12-09T02:58:59.173Z,82.87
2022-12-09T03:01:40.266Z,83.56
2022-12-09T03:04:09.109Z,83.64
2022-12-09T03:06:46.852Z,84.68
2022-12-09T03:09:26.796Z,84.22
2022-12-09T03:11:58.421Z,84.43
2022-12-09T03:14:36.116Z,84.98
2022-12-09T03:17:13.134Z,84.90
2022-12-09T03:19:40.205Z,85.48
2022-12-09T03:22:13.060Z,85.53
2022-12-09T03:24:46.083Z,85.21
2022-12-09T03:27:18.767Z,85.35
2022-12-09T03:29:48.323Z,85.64
2022-12-09T03:32:17.992Z,86.51
2022-12-09T03:34:47.849Z,87.50
2022-12-09T03:37:17.404Z,87.15
2022-12-09T03:39:45.702Z,86.56
2022-12-09T03:42:33.495Z,86.67
2022-12-09T03:45:06.121Z,86.23
2022-12-09T03:47:33.422Z,86.06
2022-12-09T03:50:00.515Z,86.19
2022-12-09T03:52:34.422Z,85.97
2022-12-09T03:55:27.225Z,85.15
2022-12-09T03:57:58.181Z,84.77
2022-12-09T04:00:25.144Z,84.44
2022-12-09T04:02:52.540Z,84.78
2022-12-09T04:05:19.722Z,84.53
2022-12-09T04:07:46.703Z,85.51
2022-12-09T04:10:13.859Z,85.64
2022-12-09T04:12:40.523Z,85.15
2022-12-09T04:15:07.801Z,85.62
2022-12-09T04:22:38.114Z,85.41
2022-12-09T04:25:05.268Z,84.97
2022-12-09T04:27:32.032Z,85.04
2022-12-09T04:29:58.949Z,85.25
2022-12-09T04:32:26.068Z,84.89
2022-12-09T04:34:52.705Z,84.57
2022-12-09T04:37:19.650Z,84.24
2022-12-09T04:39:46.277Z,84.49
2022-12-09T04:42:13.007Z,83.96
2022-12-09T04:47:11.263Z,84.06
2022-12-09T04:49:38.273Z,84.18
2022-12-09T04:52:05.410Z,83.33
2022-12-09T04:59:38.386Z,83.07
2022-12-09T05:02:05.165Z,82.90
2022-12-09T05:04:32.040Z,83.06
2022-12-09T05:06:58.908Z,82.98
2022-12-09T05:09:25.875Z,82.60
2022-12-09T05:11:53.689Z,83.07
2022-12-09T05:14:20.941Z,83.21
2022-12-09T05:16:47.685Z,84.17
2022-12-09T05:19:14.593Z,84.54
2022-12-09T05:21:44.103Z,84.16
2022-12-09T05:24:11.254Z,84.09
2022-12-09T05:26:38.470Z,84.16
2022-12-09T05:29:05.936Z,84.17
2022-12-09T05:31:33.421Z,83.82
2022-12-09T05:34:00.646Z,83.95
2022-12-09T05:38:59.200Z,84.23
2022-12-09T05:41:26.222Z,84.94
2022-12-09T05:43:53.336Z,85.21
2022-12-09T05:46:20.689Z,85.35
2022-12-09T05:48:47.649Z,85.30
2022-12-09T05:51:32.922Z,85.26
2022-12-09T05:54:04.988Z,85.38
2022-12-09T05:56:33.528Z,85.32
2022-12-09T05:59:00.820Z,85.37
2022-12-09T06:01:27.939Z,85.21
2022-12-09T06:03:55.429Z,85.08
2022-12-09T06:06:27.018Z,84.57
2022-12-09T06:08:59.875Z,85.24
2022-12-09T06:11:27.906Z,85.52
2022-12-09T06:13:55.464Z,85.39
2022-12-09T06:16:23.394Z,85.31
2022-12-09T06:18:51.566Z,85.21
2022-12-09T06:21:20.013Z,85.06
2022-12-09T06:23:47.630Z,84.92
2022-12-09T06:26:22.291Z,85.08
2022-12-09T06:28:49.539Z,85.04
2022-12-09T06:33:57.542Z,84.50
2022-12-09T06:36:27.842Z,84.69
2022-12-09T06:41:26.389Z,85.09
2022-12-09T06:43:53.862Z,84.52
2022-12-09T06:46:26.030Z,85.74
2022-12-09T06:48:54.818Z,84.97
2022-12-09T06:51:23.037Z,84.59
2022-12-09T06:53:50.119Z,84.33
2022-12-09T06:56:17.704Z,84.06
2022-12-09T06:58:46.113Z,84.10
2022-12-09T07:01:18.525Z,84.64
2022-12-09T07:03:50.752Z,86.05
2022-12-09T07:06:29.923Z,87.43
2022-12-09T07:08:59.076Z,88.28
2022-12-09T07:13:57.750Z,87.87
2022-12-09T07:16:25.229Z,86.50
2022-12-09T07:18:52.783Z,85.23
2022-12-09T07:21:22.772Z,85.39
2022-12-09T07:23:50.069Z,85.73
2022-12-09T07:26:18.579Z,85.34
2022-12-09T07:28:47.449Z,85.35
2022-12-09T07:31:25.479Z,84.92
2022-12-09T07:33:54.386Z,84.64
2022-12-09T07:36:22.774Z,84.09
2022-12-09T07:39:05.474Z,84.24
2022-12-09T07:41:32.557Z,84.50
2022-12-09T07:43:59.809Z,83.25
2022-12-09T07:46:27.869Z,84.24
2022-12-09T07:48:56.465Z,84.66
2022-12-09T07:51:25.161Z,84.52
2022-12-09T07:53:52.562Z,84.92
2022-12-09T07:56:19.742Z,86.32
2022-12-09T07:58:48.120Z,87.11
2022-12-09T08:01:18.822Z,86.02
2022-12-09T08:03:47.374Z,85.05
2022-12-09T08:06:17.180Z,84.72
2022-12-09T08:08:44.659Z,84.19
2022-12-09T08:11:16.234Z,84.02
2022-12-09T08:13:43.268Z,83.83
2022-12-09T08:16:12.401Z,84.79
2022-12-09T08:18:40.250Z,84.75
2022-12-09T08:23:48.705Z,84.56
2022-12-09T08:26:17.743Z,84.67
2022-12-09T08:28:44.661Z,84.91
2022-12-09T08:31:14.625Z,85.36
2022-12-09T08:33:41.871Z,85.80
2022-12-09T08:36:21.019Z,86.79
2022-12-09T08:38:48.139Z,86.10
2022-12-09T08:41:21.527Z,85.64
2022-12-09T08:43:49.226Z,85.00
2022-12-09T08:46:16.444Z,85.03
2022-12-09T08:48:43.748Z,85.21
2022-12-09T08:51:12.231Z,84.84
2022-12-09T08:53:39.939Z,84.36
2022-12-09T08:56:14.815Z,85.40
2022-12-09T08:58:43.213Z,85.50
2022-12-09T09:01:26.828Z,84.76
2022-12-09T09:03:54.026Z,83.87
2022-12-09T09:06:21.479Z,83.14
2022-12-09T09:08:49.041Z,83.44
2022-12-09T09:11:19.713Z,85.10
2022-12-09T09:13:48.940Z,84.53
2022-12-09T09:16:19.244Z,85.25
2022-12-09T09:18:46.756Z,84.39
2022-12-09T09:21:16.092Z,84.63
2022-12-09T09:23:43.989Z,84.83
2022-12-09T09:26:13.255Z,84.90
2022-12-09T09:28:40.712Z,84.64
2022-12-09T09:31:09.375Z,84.24
2022-12-09T09:33:37.288Z,83.73
2022-12-09T09:36:10.166Z,84.42
2022-12-09T09:38:38.518Z,84.40
2022-12-09T09:41:34.866Z,84.65
2022-12-09T09:44:02.230Z,84.42
2022-12-09T09:46:40.015Z,84.38
2022-12-09T09:49:13.308Z,82.88
2022-12-09T09:51:40.169Z,83.27
2022-12-09T09:54:10.895Z,82.62
2022-12-09T09:56:47.941Z,82.83
2022-12-09T09:59:37.689Z,83.28
2022-12-09T10:02:19.477Z,83.74
2022-12-09T10:05:03.489Z,82.72
2022-12-09T10:07:57.293Z,83.03
2022-12-09T10:10:41.274Z,84.66
2022-12-09T10:13:29.641Z,84.80
2022-12-09T10:16:17.677Z,85.12
2022-12-09T10:18:53.650Z,84.18
2022-12-09T10:21:21.799Z,84.25
2022-12-09T10:23:50.693Z,84.79
2022-12-09T10:26:25.900Z,83.96
2022-12-09T10:29:18.695Z,83.60
2022-12-09T10:31:45.972Z,83.01
2022-12-09T10:34:14.360Z,82.67
2022-12-09T10:36:45.307Z,82.30
2022-12-09T10:39:19.070Z,82.41
2022-12-09T10:42:10.581Z,83.33
2022-12-09T10:44:37.561Z,82.64
2022-12-09T10:47:08.006Z,82.93
2022-12-09T10:49:36.214Z,82.55
2022-12-09T10:52:05.421Z,81.88
2022-12-09T10:54:37.188Z,81.92
2022-12-09T10:57:13.006Z,81.42
2022-12-09T10:59:42.498Z,81.58
2022-12-09T11:02:09.840Z,81.19
2022-12-09T11:04:37.210Z,80.80
2022-12-09T11:07:13.249Z,81.53
2022-12-09T11:09:45.821Z,82.40
2022-12-09T11:12:19.222Z,82.11
2022-12-09T11:14:52.547Z,81.70
2022-12-09T11:17:28.401Z,82.33
2022-12-09T11:20:17.646Z,81.97
2022-12-09T11:22:46.173Z,83.22
2022-12-09T11:25:16.625Z,82.51
2022-12-09T11:27:52.176Z,83.04
2022-12-09T11:30:21.903Z,83.38
2022-12-09T11:32:56.989Z,83.28
2022-12-09T11:35:31.235Z,83.82
2022-12-09T11:38:01.361Z,84.07
2022-12-09T11:40:28.961Z,83.07
2022-12-09T11:42:57.256Z,83.74
2022-12-09T11:45:33.795Z,83.65
2022-12-09T11:48:31.938Z,83.86
2022-12-09T11:51:01.934Z,84.00
2022-12-09T11:53:31.430Z,83.96
2022-12-09T11:56:16.014Z,82.88
2022-12-09T11:58:48.480Z,83.45
2022-12-09T12:01:28.928Z,84.49
2022-12-09T12:04:01.674Z,83.15
2022-12-09T12:06:39.952Z,83.76
2022-12-09T12:09:16.160Z,84.35
2022-12-09T12:11:51.715Z,84.07
2022-12-09T12:14:28.156Z,84.41
2022-12-09T12:17:14.299Z,84.45
2022-12-09T12:19:43.668Z,84.35
2022-12-09T12:22:35.044Z,85.27
2022-12-09T12:25:22.205Z,85.87
2022-12-09T12:28:26.395Z,84.94
2022-12-09T12:31:19.953Z,86.11
2022-12-09T12:34:23.509Z,85.95
2022-12-09T12:36:53.513Z,86.48
2022-12-09T12:39:26.101Z,86.67
2022-12-09T12:42:11.091Z,85.09
2022-12-09T12:48:15.897Z,85.60
2022-12-09T12:50:48.429Z,87.12
2022-12-09T12:53:33.784Z,87.01
2022-12-09T12:56:15.711Z,84.65
2022-12-09T12:59:00.300Z,85.36
2022-12-09T13:02:16.032Z,86.56
2022-12-09T13:04:54.749Z,85.44
2022-12-09T13:07:48.467Z,86.41
2022-12-09T13:10:39.824Z,86.35
2022-12-09T13:13:34.346Z,86.52
2022-12-09T13:16:07.143Z,86.96
2022-12-09T13:18:36.941Z,85.94
2022-12-09T13:24:08.800Z,85.26
2022-12-09T13:26:53.402Z,84.73
2022-12-09T13:29:47.640Z,86.29
2022-12-09T13:32:26.804Z,85.53
2022-12-09T13:37:54.961Z,83.68
2022-12-09T13:40:21.557Z,84.19
2022-12-09T13:42:58.996Z,83.66
2022-12-09T13:45:25.647Z,83.89
2022-12-09T13:47:56.393Z,83.85
2022-12-09T13:50:27.718Z,83.89
2022-12-09T13:52:57.922Z,84.13
2022-12-09T13:55:30.484Z,83.83
2022-12-09T13:58:12.654Z,86.05
2022-12-09T14:00:43.578Z,86.25
2022-12-09T14:03:30.575Z,86.25
2022-12-09T14:06:00.647Z,86.27
2022-12-09T14:08:33.697Z,87.45
2022-12-09T14:11:38.537Z,87.50
2022-12-09T14:14:23.496Z,89.09
2022-12-09T14:16:54.794Z,87.90
2022-12-09T14:19:24.125Z,88.00
2022-12-09T14:22:22.316Z,90.12
2022-12-09T14:24:52.928Z,89.66
2022-12-09T14:27:25.518Z,89.94
2022-12-09T14:29:52.113Z,90.50
2022-12-09T14:32:31.977Z,89.97
2022-12-09T14:35:10.504Z,88.40
2022-12-09T14:37:42.531Z,89.80
2022-12-09T14:40:14.835Z,89.17
2022-12-09T14:43:10.145Z,90.36
2022-12-09T14:46:00.574Z,90.20
2022-12-09T14:48:31.387Z,88.60
2022-12-09T14:51:20.155Z,88.83
2022-12-09T14:53:57.698Z,88.20
2022-12-09T14:56:26.118Z,88.51
2022-12-09T14:59:18.758Z,91.89
2022-12-09T15:01:54.444Z,91.79
2022-12-09T15:04:36.229Z,92.21
2022-12-09T15:07:20.392Z,90.17
2022-12-09T15:12:37.168Z,90.47
2022-12-09T15:15:23.438Z,90.54
2022-12-09T15:17:58.029Z,91.96
2022-12-09T15:20:27.621Z,92.35
2022-12-09T15:23:07.270Z,93.56
2022-12-09T15:25:45.388Z,91.78
2022-12-09T15:28:24.515Z,93.72
2022-12-09T15:33:42.525Z,94.45
2022-12-09T15:36:43.096Z,95.36
2022-12-09T15:39:18.392Z,92.02
2022-12-09T15:42:06.551Z,90.10
2022-12-09T15:44:36.142Z,93.56
2022-12-09T15:47:10.305Z,93.29
2022-12-09T15:49:45.240Z,94.31
2022-12-09T15:52:14.404Z,94.04
2022-12-09T15:54:44.474Z,94.77
2022-12-09T15:57:17.597Z,91.97
2022-12-09T15:59:55.512Z,92.62
2022-12-09T16:02:27.665Z,93.30
2022-12-09T16:04:58.154Z,94.31
2022-12-09T16:07:25.404Z,92.01
2022-12-09T16:10:12.806Z,95.84
2022-12-09T16:12:41.031Z,95.34
2022-12-09T16:15:11.406Z,94.59
2022-12-09T16:17:53.473Z,91.84
2022-12-09T16:23:25.020Z,92.69
2022-12-09T16:25:52.137Z,92.23
2022-12-09T16:28:27.565Z,94.33
2022-12-09T16:31:04.485Z,95.82
2022-12-09T16:33:37.747Z,94.16
2022-12-09T16:36:07.207Z,95.96
2022-12-09T16:38:38.854Z,92.80
2022-12-09T16:41:08.962Z,92.92
2022-12-09T16:46:14.111Z,92.35
2022-12-09T16:48:42.639Z,91.38
2022-12-09T16:51:21.133Z,90.69
2022-12-09T16:53:52.432Z,91.46
2022-12-09T16:56:20.436Z,91.83
2022-12-09T16:58:47.583Z,94.39
2022-12-09T17:01:16.707Z,93.55
2022-12-09T17:03:45.039Z,92.60
2022-12-09T17:06:17.220Z,93.86
2022-12-09T17:08:44.930Z,92.58
2022-12-09T17:11:12.277Z,92.42
2022-12-09T17:13:39.552Z,94.99
2022-12-09T17:16:07.141Z,92.00
2022-12-09T17:18:34.619Z,93.19
2022-12-09T17:21:04.527Z,96.74
2022-12-09T17:23:37.698Z,97.76
2022-12-09T17:26:08.015Z,92.81
2022-12-09T17:28:36.037Z,95.42
2022-12-09T17:31:11.215Z,92.19
2022-12-09T17:33:38.626Z,91.97
2022-12-09T17:36:06.159Z,92.85
2022-12-09T17:41:10.249Z,90.85
2022-12-09T17:43:37.480Z,95.46
2022-12-09T17:46:06.062Z,97.80
2022-12-09T17:48:34.547Z,94.80
2022-12-09T17:51:09.164Z,96.21
2022-12-09T17:53:37.509Z,98.55
2022-12-09T17:56:16.714Z,99.20
2022-12-09T18:04:04.674Z,94.76
2022-12-09T18:06:35.252Z,92.92
2022-12-09T18:09:04.484Z,92.94
2022-12-09T18:11:31.883Z,97.18
2022-12-09T18:13:59.297Z,96.53
2022-12-09T18:16:26.044Z,96.10
2022-12-09T18:18:53.309Z,97.44
2022-12-09T18:21:20.392Z,95.45
2022-12-09T18:23:48.525Z,93.82
2022-12-09T18:26:17.707Z,93.31
2022-12-09T18:28:44.626Z,93.24
2022-12-09T18:31:19.323Z,92.14
2022-12-09T18:33:46.631Z,91.77
2022-12-09T18:36:18.712Z,92.33
2022-12-09T18:38:45.455Z,91.99
2022-12-09T18:41:14.071Z,92.54
2022-12-09T18:43:43.181Z,91.58
2022-12-09T18:46:13.304Z,90.71
2022-12-09T18:48:40.885Z,90.61
2022-12-09T18:51:20.908Z,90.55
2022-12-09T18:53:48.737Z,91.33
2022-12-09T18:56:16.782Z,90.41
2022-12-09T18:59:05.302Z,92.11
2022-12-09T19:01:31.807Z,93.81
2022-12-09T19:04:03.775Z,94.98
2022-12-09T19:06:35.686Z,93.56
2022-12-09T19:11:41.669Z,91.54
2022-12-09T19:14:09.173Z,91.72
2022-12-09T19:16:36.168Z,94.18
2022-12-09T19:19:09.139Z,95.60
2022-12-09T19:21:37.326Z,95.93
2022-12-09T19:24:04.205Z,94.34
2022-12-09T19:26:33.122Z,94.95
2022-12-09T19:29:02.256Z,94.55
2022-12-09T19:31:38.644Z,95.73
2022-12-09T19:34:10.767Z,93.08
2022-12-09T19:36:37.459Z,94.87
2022-12-09T19:39:06.447Z,95.93
2022-12-09T19:41:33.118Z,96.88
2022-12-09T19:44:01.137Z,95.77
2022-12-09T19:46:28.745Z,94.64
2022-12-09T19:48:57.243Z,93.30
2022-12-09T19:51:25.275Z,93.65
2022-12-09T19:53:56.606Z,93.67
2022-12-09T19:56:24.283Z,93.63
2022-12-09T19:58:52.699Z,95.46
2022-12-09T20:01:22.909Z,95.01
2022-12-09T20:03:56.218Z,94.57
2022-12-09T20:06:23.011Z,95.49
2022-12-09T20:08:49.717Z,94.72
2022-12-09T20:11:19.925Z,95.17
2022-12-09T20:13:47.390Z,94.78
2022-12-09T20:16:18.373Z,94.13
2022-12-09T20:18:47.798Z,94.21
2022-12-09T20:21:16.555Z,92.58
2022-12-09T20:23:44.208Z,91.82
2022-12-09T20:26:20.376Z,91.43
2022-12-09T20:28:48.665Z,91.08
2022-12-09T20:31:21.011Z,91.97
2022-12-09T20:33:48.713Z,94.14
2022-12-09T20:36:19.707Z,94.59
2022-12-09T20:38:54.691Z,96.75
2022-12-09T20:41:22.479Z,98.33
2022-12-09T20:43:50.841Z,98.60
2022-12-09T20:46:20.598Z,94.17
2022-12-09T20:48:48.207Z,92.11
2022-12-09T20:51:41.531Z,92.26
2022-12-09T20:54:10.340Z,92.78
2022-12-09T20:56:37.634Z,92.30
2022-12-09T20:59:04.898Z,91.51
2022-12-09T21:01:34.412Z,91.87
2022-12-09T21:04:02.513Z,92.12
2022-12-09T21:06:34.392Z,92.65
2022-12-09T21:09:06.268Z,95.10
2022-12-09T21:11:33.077Z,95.43
2022-12-09T21:14:02.233Z,94.78
2022-12-09T21:16:34.828Z,95.68
2022-12-09T21:19:05.378Z,96.21
2022-12-09T21:21:35.340Z,97.60
2022-12-09T21:24:02.801Z,98.55
2022-12-09T21:29:01.769Z,94.95
2022-12-09T21:31:32.067Z,94.17
2022-12-09T21:34:03.799Z,93.12
2022-12-09T21:36:33.415Z,93.01
2022-12-09T21:39:00.705Z,94.22
2022-12-09T21:41:31.071Z,93.10
2022-12-09T21:43:58.159Z,93.76
2022-12-09T21:46:30.089Z,93.68
2022-12-09T21:49:03.350Z,93.54
2022-12-09T21:51:31.660Z,93.64
2022-12-09T21:53:58.304Z,95.48
2022-12-09T21:56:27.752Z,93.58
2022-12-09T21:58:57.348Z,92.87
2022-12-09T22:01:30.071Z,95.35
2022-12-09T22:03:58.452Z,94.98
2022-12-09T22:06:25.791Z,94.16
2022-12-09T22:08:52.441Z,93.73
2022-12-09T22:11:25.067Z,95.85
2022-12-09T22:13:52.747Z,97.53
2022-12-09T22:16:22.878Z,95.59
2022-12-09T22:18:50.660Z,94.82
2022-12-09T22:21:25.173Z,96.82
2022-12-09T22:23:55.003Z,96.73
2022-12-09T22:26:22.958Z,97.23
2022-12-09T22:28:50.282Z,97.12
2022-12-09T22:31:25.895Z,95.12
2022-12-09T22:33:54.661Z,95.23
2022-12-09T22:36:22.501Z,95.74
2022-12-09T22:38:49.776Z,97.32
2022-12-09T22:41:19.883Z,95.08
2022-12-09T22:43:48.363Z,93.17
2022-12-09T22:46:17.594Z,91.65
2022-12-09T22:48:44.485Z,92.17
2022-12-09T22:51:17.391Z,92.39
2022-12-09T22:53:44.647Z,92.50
2022-12-09T22:56:12.557Z,92.90
2022-12-09T22:58:39.186Z,94.98
2022-12-09T23:01:10.222Z,94.56
2022-12-09T23:03:37.357Z,92.92
2022-12-09T23:06:04.212Z,92.03
2022-12-09T23:08:30.903Z,92.50
2022-12-09T23:11:05.769Z,92.71
2022-12-09T23:13:36.208Z,91.30
2022-12-09T23:16:09.338Z,93.39
2022-12-09T23:18:36.145Z,94.38
2022-12-09T23:21:11.421Z,94.82
2022-12-09T23:23:38.633Z,95.89
2022-12-09T23:26:11.371Z,96.06
2022-12-09T23:28:42.797Z,95.28
2022-12-09T23:31:12.132Z,92.62
2022-12-09T23:33:40.081Z,93.21
2022-12-09T23:36:08.020Z,95.33
2022-12-09T23:38:35.164Z,94.47
2022-12-09T23:41:02.040Z,93.88
2022-12-09T23:43:33.088Z,93.12
2022-12-09T23:46:01.715Z,92.25
2022-12-09T23:48:28.441Z,91.90
2022-12-09T23:50:55.534Z,91.51
2022-12-09T23:53:22.603Z,90.74
2022-12-09T23:55:49.452Z,90.61
2022-12-09T23:58:19.244Z,92.41
